createdAt,value
2023-03-08T00:01:24.896Z,13.00
2023-03-08T00:03:53.574Z,11.70
2023-03-08T00:06:20.207Z,11.97
2023-03-08T00:08:48.740Z,11.50
2023-03-08T00:11:15.860Z,11.37
2023-03-08T00:13:42.447Z,12.77
2023-03-08T00:16:11.498Z,10.03
2023-03-08T00:18:38.281Z,11.27
2023-03-08T00:21:14.502Z,12.27
2023-03-08T00:23:41.912Z,11.30
2023-03-08T00:26:09.247Z,9.80
2023-03-08T00:28:36.087Z,10.70
2023-03-08T00:31:08.075Z,12.13
2023-03-08T00:33:35.635Z,11.40
2023-03-08T00:36:05.305Z,9.87
2023-03-08T00:38:34.000Z,11.00
2023-03-08T00:41:00.725Z,10.73
2023-03-08T00:43:28.229Z,10.67
2023-03-08T00:45:54.777Z,11.43
2023-03-08T00:48:21.717Z,10.50
2023-03-08T00:50:48.889Z,11.30
2023-03-08T00:53:15.530Z,10.80
2023-03-08T00:55:53.226Z,10.53
2023-03-08T00:58:20.696Z,10.33
2023-03-08T01:00:47.568Z,12.60
2023-03-08T01:03:14.466Z,11.83
2023-03-08T01:05:42.336Z,10.73
2023-03-08T01:08:09.451Z,10.60
2023-03-08T01:10:40.543Z,11.50
2023-03-08T01:13:08.237Z,10.53
2023-03-08T01:15:38.881Z,10.97
2023-03-08T01:18:06.560Z,11.97
2023-03-08T01:20:33.711Z,10.50
2023-03-08T01:23:00.442Z,10.77
2023-03-08T01:25:27.160Z,10.77
2023-03-08T01:27:53.666Z,11.23
2023-03-08T01:30:20.259Z,12.07
2023-03-08T01:32:46.799Z,11.77
2023-03-08T01:35:13.509Z,10.90
2023-03-08T01:37:39.960Z,11.30
2023-03-08T01:40:07.624Z,12.93
2023-03-08T01:42:34.146Z,12.13
2023-03-08T01:45:06.549Z,12.77
2023-03-08T01:47:36.141Z,13.13
2023-03-08T01:50:11.783Z,12.90
2023-03-08T01:52:47.108Z,12.33
2023-03-08T01:55:14.359Z,12.17
2023-03-08T01:57:45.592Z,13.53
2023-03-08T02:00:18.365Z,11.70
2023-03-08T02:02:50.096Z,12.97
2023-03-08T02:05:17.102Z,13.00
2023-03-08T02:07:43.770Z,13.93
2023-03-08T02:10:11.715Z,13.10
2023-03-08T02:12:39.034Z,14.07
2023-03-08T02:15:07.239Z,13.07
2023-03-08T02:17:37.953Z,12.00
2023-03-08T02:20:13.910Z,13.30
2023-03-08T02:22:42.181Z,13.57
2023-03-08T02:25:22.893Z,12.23
2023-03-08T02:27:50.622Z,11.23
2023-03-08T02:30:23.452Z,11.90
2023-03-08T02:32:49.938Z,12.33
2023-03-08T02:35:16.640Z,13.50
2023-03-08T02:37:43.351Z,13.43
2023-03-08T02:40:11.636Z,14.10
2023-03-08T02:42:38.360Z,13.50
2023-03-08T02:45:05.463Z,11.63
2023-03-08T02:47:31.940Z,12.20
2023-03-08T02:49:58.517Z,13.30
2023-03-08T02:52:25.109Z,12.47
2023-03-08T02:54:51.597Z,12.17
2023-03-08T02:57:18.078Z,12.00
2023-03-08T02:59:44.599Z,13.90
2023-03-08T03:02:11.131Z,14.00
2023-03-08T03:04:37.907Z,12.10
2023-03-08T03:07:04.629Z,12.33
2023-03-08T03:09:31.166Z,13.13
2023-03-08T03:11:57.770Z,13.77
2023-03-08T03:14:27.594Z,14.47
2023-03-08T03:16:54.242Z,12.73
2023-03-08T03:19:21.220Z,12.40
2023-03-08T03:21:48.663Z,15.10
2023-03-08T03:24:15.388Z,15.47
2023-03-08T03:26:41.951Z,13.50
2023-03-08T03:29:08.789Z,13.03
2023-03-08T03:31:35.375Z,13.97
2023-03-08T03:34:02.032Z,14.73
2023-03-08T03:36:28.608Z,13.10
2023-03-08T03:38:55.676Z,13.67
2023-03-08T03:41:23.439Z,14.50
2023-03-08T03:43:50.565Z,12.03
2023-03-08T03:46:19.727Z,13.93
2023-03-08T03:48:46.816Z,13.60
2023-03-08T03:51:17.102Z,13.57
2023-03-08T03:53:43.953Z,13.70
2023-03-08T03:56:16.333Z,13.47
2023-03-08T03:58:42.962Z,13.13
2023-03-08T04:01:24.628Z,13.80
2023-03-08T04:03:52.313Z,13.30
2023-03-08T04:06:20.877Z,13.57
2023-03-08T04:08:48.382Z,14.60
2023-03-08T04:11:18.257Z,13.10
2023-03-08T04:13:45.261Z,12.63
2023-03-08T04:16:17.474Z,12.40
2023-03-08T04:18:44.128Z,11.30
2023-03-08T04:21:11.487Z,12.60
2023-03-08T04:23:38.319Z,12.40
2023-03-08T04:26:05.745Z,13.30
2023-03-08T04:28:33.949Z,13.07
2023-03-08T04:31:01.322Z,12.60
2023-03-08T04:33:28.349Z,11.60
2023-03-08T04:35:54.924Z,13.33
2023-03-08T04:38:21.603Z,13.47
2023-03-08T04:41:12.153Z,13.43
2023-03-08T04:43:46.280Z,13.03
2023-03-08T04:46:13.387Z,13.83
2023-03-08T04:48:40.146Z,12.97
2023-03-08T04:51:07.838Z,13.67
2023-03-08T04:53:35.041Z,13.63
2023-03-08T04:56:02.063Z,14.80
2023-03-08T04:58:29.462Z,15.23
2023-03-08T05:00:56.366Z,14.00
2023-03-08T05:03:23.326Z,13.77
2023-03-08T05:05:55.263Z,14.73
2023-03-08T05:08:22.457Z,13.10
2023-03-08T05:11:00.919Z,12.73
2023-03-08T05:13:29.618Z,13.70
2023-03-08T05:15:56.365Z,13.17
2023-03-08T05:18:22.981Z,13.10
2023-03-08T05:20:57.305Z,13.53
2023-03-08T05:23:24.737Z,13.50
2023-03-08T05:25:53.016Z,12.80
2023-03-08T05:28:19.879Z,14.23
2023-03-08T05:30:46.725Z,13.60
2023-03-08T05:33:13.792Z,13.60
2023-03-08T05:35:40.437Z,12.70
2023-03-08T05:38:07.139Z,14.40
2023-03-08T05:40:33.709Z,13.40
2023-03-08T05:43:00.200Z,13.70
2023-03-08T05:45:27.098Z,14.77
2023-03-08T05:47:53.781Z,12.67
2023-03-08T05:50:20.337Z,14.23
2023-03-08T05:52:47.559Z,13.07
2023-03-08T05:55:14.147Z,12.57
2023-03-08T05:57:40.881Z,12.40
2023-03-08T06:00:08.279Z,13.90
2023-03-08T06:02:34.794Z,13.00
2023-03-08T06:05:01.353Z,14.60
2023-03-08T06:07:27.942Z,14.23
2023-03-08T06:09:55.845Z,13.30
2023-03-08T06:12:22.496Z,14.00
2023-03-08T06:14:49.020Z,13.03
2023-03-08T06:17:15.566Z,14.00
2023-03-08T06:19:42.096Z,13.40
2023-03-08T06:22:08.676Z,14.30
2023-03-08T06:24:35.492Z,13.80
2023-03-08T06:27:01.937Z,13.03
2023-03-08T06:29:28.489Z,15.40
2023-03-08T06:31:55.632Z,12.73
2023-03-08T06:34:22.303Z,12.23
2023-03-08T06:36:48.818Z,13.37
2023-03-08T06:39:15.377Z,13.70
2023-03-08T06:41:41.921Z,13.47
2023-03-08T06:44:08.398Z,12.73
2023-03-08T06:46:34.918Z,14.07
2023-03-08T06:49:01.690Z,14.67
2023-03-08T06:51:28.234Z,13.07
2023-03-08T06:53:55.072Z,13.63
2023-03-08T06:56:21.611Z,13.60
2023-03-08T06:58:48.245Z,12.60
2023-03-08T07:01:14.875Z,13.63
2023-03-08T07:03:41.891Z,15.07
2023-03-08T07:06:10.014Z,14.00
2023-03-08T07:08:37.820Z,13.73
2023-03-08T07:11:04.860Z,13.30
2023-03-08T07:13:31.460Z,12.97
2023-03-08T07:15:58.120Z,12.97
2023-03-08T07:18:25.352Z,12.93
2023-03-08T07:20:53.316Z,13.97
2023-03-08T07:23:19.894Z,13.50
2023-03-08T07:25:46.444Z,14.60
2023-03-08T07:28:13.124Z,14.10
2023-03-08T07:30:39.960Z,12.67
2023-03-08T07:33:06.585Z,13.23
2023-03-08T07:35:33.138Z,14.00
2023-03-08T07:37:59.717Z,12.80
2023-03-08T07:40:26.297Z,12.10
2023-03-08T07:42:52.891Z,14.40
2023-03-08T07:45:19.628Z,11.87
2023-03-08T07:47:46.163Z,11.83
2023-03-08T07:50:12.933Z,13.60
2023-03-08T07:52:39.481Z,13.07
2023-03-08T07:55:06.805Z,12.57
2023-03-08T07:57:33.298Z,11.93
2023-03-08T07:59:59.890Z,11.60
2023-03-08T08:02:26.399Z,12.53
2023-03-08T08:04:53.297Z,12.23
2023-03-08T08:07:19.899Z,11.27
2023-03-08T08:09:46.401Z,12.47
2023-03-08T08:12:13.093Z,12.23
2023-03-08T08:14:39.707Z,12.00
2023-03-08T08:17:06.273Z,12.33
2023-03-08T08:19:32.921Z,12.80
2023-03-08T08:22:00.296Z,11.87
2023-03-08T08:24:27.374Z,12.30
2023-03-08T08:26:54.207Z,13.07
2023-03-08T08:29:20.823Z,13.10
2023-03-08T08:31:47.635Z,12.83
2023-03-08T08:34:14.313Z,12.63
2023-03-08T08:36:41.122Z,12.83
2023-03-08T08:39:07.731Z,12.10
2023-03-08T08:41:34.246Z,13.07
2023-03-08T08:44:00.853Z,13.00
2023-03-08T08:46:28.209Z,12.73
2023-03-08T08:48:56.162Z,13.07
2023-03-08T08:51:22.730Z,11.83
2023-03-08T08:53:49.369Z,12.10
2023-03-08T08:56:27.308Z,11.57
2023-03-08T08:58:56.101Z,12.40
2023-03-08T09:01:24.864Z,11.43
2023-03-08T09:03:51.785Z,12.50
2023-03-08T09:06:22.846Z,10.37
2023-03-08T09:08:54.921Z,12.30
2023-03-08T09:11:22.213Z,12.60
2023-03-08T09:13:48.840Z,12.33
2023-03-08T09:16:24.165Z,12.23
2023-03-08T09:18:51.354Z,12.40
2023-03-08T09:21:18.160Z,11.63
2023-03-08T09:23:44.690Z,11.20
2023-03-08T09:26:11.764Z,11.83
2023-03-08T09:28:38.374Z,10.77
2023-03-08T09:31:12.985Z,11.20
2023-03-08T09:33:48.402Z,11.60
2023-03-08T09:36:15.776Z,12.47
2023-03-08T09:38:42.922Z,12.53
2023-03-08T09:41:34.396Z,12.03
2023-03-08T09:44:31.816Z,12.57
2023-03-08T09:47:28.927Z,11.67
2023-03-08T09:50:01.925Z,12.10
2023-03-08T09:52:52.257Z,13.23
2023-03-08T09:55:30.804Z,11.73
2023-03-08T09:58:22.524Z,12.47
2023-03-08T10:00:49.368Z,12.03
2023-03-08T10:03:36.811Z,12.57
2023-03-08T10:06:10.555Z,12.00
2023-03-08T10:09:00.347Z,11.53
2023-03-08T10:11:47.273Z,11.63
2023-03-08T10:14:24.612Z,12.47
2023-03-08T10:16:54.416Z,11.77
2023-03-08T10:19:26.116Z,13.20
2023-03-08T10:21:53.542Z,11.70
2023-03-08T10:24:28.178Z,12.73
2023-03-08T10:26:55.286Z,11.47
2023-03-08T10:29:21.877Z,14.23
2023-03-08T10:31:48.685Z,11.17
2023-03-08T10:34:32.117Z,11.60
2023-03-08T10:37:01.440Z,11.97
2023-03-08T10:39:28.413Z,12.47
2023-03-08T10:41:57.537Z,11.03
2023-03-08T10:44:43.596Z,11.63
2023-03-08T10:47:27.565Z,10.43
2023-03-08T10:50:18.153Z,10.20
2023-03-08T10:52:46.440Z,11.40
2023-03-08T10:55:17.493Z,10.80
2023-03-08T10:57:59.716Z,12.37
2023-03-08T11:00:37.836Z,10.20
2023-03-08T11:03:25.040Z,10.73
2023-03-08T11:06:13.673Z,9.67
2023-03-08T11:08:51.597Z,9.57
2023-03-08T11:11:18.186Z,10.10
2023-03-08T11:13:49.633Z,10.53
2023-03-08T11:16:57.084Z,11.33
2023-03-08T11:19:44.669Z,11.27
2023-03-08T11:22:24.625Z,10.80
2023-03-08T11:25:09.430Z,11.83
2023-03-08T11:27:52.853Z,12.30
2023-03-08T11:30:57.128Z,11.30
2023-03-08T11:33:38.719Z,11.00
2023-03-08T11:36:14.401Z,12.97
2023-03-08T11:38:41.452Z,11.50
2023-03-08T11:41:28.813Z,11.03
2023-03-08T11:44:13.384Z,12.30
2023-03-08T11:46:55.181Z,10.70
2023-03-08T11:49:24.434Z,11.40
2023-03-08T11:52:26.954Z,12.60
2023-03-08T11:55:21.481Z,12.50
2023-03-08T11:57:53.290Z,11.90
2023-03-08T12:00:32.408Z,12.00
2023-03-08T12:03:03.546Z,11.10
2023-03-08T12:05:34.570Z,11.53
2023-03-08T12:08:26.278Z,11.60
2023-03-08T12:11:03.234Z,11.47
2023-03-08T12:13:39.670Z,11.90
2023-03-08T12:16:15.003Z,11.70
2023-03-08T12:19:03.428Z,11.43
2023-03-08T12:21:44.579Z,10.80
2023-03-08T12:24:30.075Z,11.53
2023-03-08T12:27:05.997Z,11.50
2023-03-08T12:29:37.728Z,11.50
2023-03-08T12:32:05.277Z,11.27
2023-03-08T12:34:42.526Z,11.50
2023-03-08T12:37:24.179Z,11.47
2023-03-08T12:40:05.870Z,11.33
2023-03-08T12:42:40.462Z,10.70
2023-03-08T12:45:18.972Z,12.07
2023-03-08T12:48:06.826Z,11.57
2023-03-08T12:50:59.670Z,11.37
2023-03-08T12:53:41.929Z,11.50
2023-03-08T12:56:11.489Z,11.07
2023-03-08T12:58:54.881Z,12.90
2023-03-08T13:01:40.572Z,12.23
2023-03-08T13:04:39.660Z,12.30
2023-03-08T13:07:07.383Z,11.10
2023-03-08T13:09:42.797Z,12.50
2023-03-08T13:12:13.598Z,12.53
2023-03-08T13:14:45.834Z,12.87
2023-03-08T13:17:30.671Z,12.80
2023-03-08T13:19:58.663Z,11.60
2023-03-08T13:22:29.811Z,10.27
2023-03-08T13:25:00.164Z,10.80
2023-03-08T13:27:54.357Z,10.60
2023-03-08T13:30:32.984Z,10.63
2023-03-08T13:33:00.235Z,11.63
2023-03-08T13:35:27.068Z,12.27
2023-03-08T13:37:55.758Z,10.97
2023-03-08T13:40:23.392Z,10.60
2023-03-08T13:42:54.019Z,9.70
2023-03-08T13:45:20.654Z,9.50
2023-03-08T13:47:47.979Z,9.60
2023-03-08T13:50:38.267Z,9.60
2023-03-08T13:53:10.072Z,8.80
2023-03-08T13:55:43.159Z,8.60
2023-03-08T13:58:39.842Z,10.50
2023-03-08T14:01:12.604Z,12.50
2023-03-08T14:03:39.887Z,11.40
2023-03-08T14:06:18.883Z,8.70
2023-03-08T14:08:47.288Z,12.80
2023-03-08T14:11:21.507Z,11.70
2023-03-08T14:13:52.063Z,11.57
2023-03-08T14:16:24.764Z,11.97
2023-03-08T14:18:51.725Z,10.97
2023-03-08T14:21:22.393Z,12.97
2023-03-08T14:23:59.132Z,12.27
2023-03-08T14:26:35.058Z,11.60
2023-03-08T14:29:10.580Z,12.87
2023-03-08T14:31:39.226Z,11.63
2023-03-08T14:34:19.176Z,12.27
2023-03-08T14:36:55.401Z,11.10
2023-03-08T14:39:23.688Z,11.80
2023-03-08T14:41:50.535Z,11.27
2023-03-08T14:44:27.403Z,13.40
2023-03-08T14:46:58.781Z,11.37
2023-03-08T14:49:29.250Z,10.67
2023-03-08T14:51:56.082Z,12.53
2023-03-08T14:54:35.056Z,12.63
2023-03-08T14:57:17.394Z,11.70
2023-03-08T14:59:44.020Z,11.00
2023-03-08T15:02:12.791Z,10.07
2023-03-08T15:04:39.944Z,11.57
2023-03-08T15:07:06.657Z,13.17
2023-03-08T15:09:33.746Z,12.13
2023-03-08T15:12:01.586Z,12.57
2023-03-08T15:14:28.955Z,12.83
2023-03-08T15:16:55.502Z,14.60
2023-03-08T15:19:21.957Z,16.20
2023-03-08T15:21:48.611Z,14.57
2023-03-08T15:24:17.592Z,12.37
2023-03-08T15:26:44.957Z,13.07
2023-03-08T15:29:26.806Z,11.97
2023-03-08T15:31:54.215Z,14.00
2023-03-08T15:34:21.429Z,20.20
2023-03-08T15:36:49.294Z,15.87
2023-03-08T15:39:15.985Z,14.20
2023-03-08T15:41:42.655Z,14.23
2023-03-08T15:44:09.961Z,13.50
2023-03-08T15:46:36.622Z,12.30
2023-03-08T15:49:03.663Z,12.97
2023-03-08T15:51:36.162Z,12.50
2023-03-08T15:54:05.069Z,11.20
2023-03-08T15:56:31.851Z,10.47
2023-03-08T15:58:58.409Z,10.20
2023-03-08T16:01:26.743Z,12.73
2023-03-08T16:03:55.222Z,12.10
2023-03-08T16:06:24.071Z,12.47
2023-03-08T16:08:50.581Z,16.73
2023-03-08T16:11:21.189Z,13.10
2023-03-08T16:13:49.272Z,11.10
2023-03-08T16:16:16.157Z,12.30
2023-03-08T16:18:44.810Z,13.53
2023-03-08T16:21:11.926Z,12.07
2023-03-08T16:23:41.504Z,12.57
2023-03-08T16:26:16.791Z,11.50
2023-03-08T16:28:45.292Z,11.43
2023-03-08T16:31:12.909Z,11.80
2023-03-08T16:33:39.847Z,10.20
2023-03-08T16:36:06.729Z,10.90
2023-03-08T16:38:33.278Z,11.13
2023-03-08T16:41:12.171Z,10.00
2023-03-08T16:43:46.297Z,11.53
2023-03-08T16:46:18.882Z,10.30
2023-03-08T16:48:45.737Z,12.37
2023-03-08T16:51:14.544Z,10.60
2023-03-08T16:53:41.135Z,10.80
2023-03-08T16:56:07.646Z,10.07
2023-03-08T16:58:34.224Z,9.33
2023-03-08T17:01:00.812Z,7.80
2023-03-08T17:03:27.387Z,7.40
2023-03-08T17:05:53.938Z,7.50
2023-03-08T17:08:20.559Z,7.17
2023-03-08T17:10:47.071Z,6.37
2023-03-08T17:13:13.755Z,6.37
2023-03-08T17:15:44.663Z,9.20
2023-03-08T17:18:11.502Z,6.97
2023-03-08T17:20:42.050Z,7.53
2023-03-08T17:23:10.211Z,6.60
2023-03-08T17:25:40.038Z,5.80
2023-03-08T17:28:08.487Z,5.30
2023-03-08T17:30:35.623Z,5.90
2023-03-08T17:33:02.378Z,6.93
2023-03-08T17:35:29.031Z,6.27
2023-03-08T17:37:55.624Z,9.83
2023-03-08T17:40:22.288Z,10.63
2023-03-08T17:42:49.003Z,7.80
2023-03-08T17:45:16.916Z,8.10
2023-03-08T17:47:43.888Z,8.07
2023-03-08T17:50:13.126Z,7.27
2023-03-08T17:52:40.751Z,7.80
2023-03-08T17:55:07.727Z,12.27
2023-03-08T17:57:36.133Z,9.80
2023-03-08T18:00:06.956Z,9.80
2023-03-08T18:02:33.625Z,8.90
2023-03-08T18:05:00.202Z,10.77
2023-03-08T18:07:28.203Z,14.07
2023-03-08T18:09:54.987Z,20.07
2023-03-08T18:12:21.516Z,19.40
2023-03-08T18:14:52.405Z,8.13
2023-03-08T18:17:20.027Z,8.77
2023-03-08T18:19:47.124Z,7.43
2023-03-08T18:22:14.163Z,7.20
2023-03-08T18:24:41.642Z,6.97
2023-03-08T18:27:08.242Z,6.10
2023-03-08T18:29:35.742Z,6.40
2023-03-08T18:32:02.804Z,6.83
2023-03-08T18:34:29.778Z,9.00
2023-03-08T18:36:58.584Z,9.30
2023-03-08T18:39:25.378Z,11.40
2023-03-08T18:41:54.031Z,9.97
2023-03-08T18:44:20.594Z,9.43
2023-03-08T18:46:47.195Z,9.97
2023-03-08T18:49:13.970Z,10.60
2023-03-08T18:51:41.711Z,9.60
2023-03-08T18:54:10.909Z,9.93
2023-03-08T18:56:37.494Z,10.43
2023-03-08T18:59:05.691Z,9.40
2023-03-08T19:01:32.833Z,8.87
2023-03-08T19:04:00.582Z,7.80
2023-03-08T19:06:27.697Z,7.90
2023-03-08T19:08:54.384Z,6.50
2023-03-08T19:11:23.632Z,7.37
2023-03-08T19:13:50.483Z,5.93
2023-03-08T19:16:27.185Z,6.83
2023-03-08T19:18:55.841Z,6.93
2023-03-08T19:21:31.207Z,7.80
2023-03-08T19:23:58.381Z,8.43
2023-03-08T19:26:47.614Z,7.00
2023-03-08T19:29:16.700Z,7.60
2023-03-08T19:31:53.196Z,8.20
2023-03-08T19:34:21.853Z,7.50
2023-03-08T19:36:49.237Z,6.60
2023-03-08T19:39:21.524Z,8.87
2023-03-08T19:41:49.345Z,7.70
2023-03-08T19:44:15.948Z,7.00
2023-03-08T19:46:42.581Z,7.33
2023-03-08T19:49:12.711Z,7.20
2023-03-08T19:51:39.257Z,10.10
2023-03-08T19:54:07.087Z,8.40
2023-03-08T19:56:34.527Z,8.40
2023-03-08T19:59:01.427Z,8.00
2023-03-08T20:01:28.044Z,6.90
2023-03-08T20:03:54.918Z,8.40
2023-03-08T20:06:31.839Z,7.60
2023-03-08T20:08:59.533Z,7.57
2023-03-08T20:11:26.117Z,8.87
2023-03-08T20:13:52.679Z,7.23
2023-03-08T20:16:20.042Z,8.13
2023-03-08T20:18:49.546Z,7.70
2023-03-08T20:21:16.728Z,8.50
2023-03-08T20:23:43.314Z,8.60
2023-03-08T20:26:09.884Z,9.80
2023-03-08T20:28:36.607Z,9.07
2023-03-08T20:31:13.048Z,9.03
2023-03-08T20:33:39.725Z,9.60
2023-03-08T20:36:06.628Z,10.37
2023-03-08T20:38:33.585Z,10.47
2023-03-08T20:41:11.913Z,12.57
2023-03-08T20:43:39.183Z,9.90
2023-03-08T20:46:09.353Z,8.47
2023-03-08T20:48:37.303Z,9.13
2023-03-08T20:51:05.115Z,8.60
2023-03-08T20:53:33.042Z,9.20
2023-03-08T20:55:59.585Z,8.33
2023-03-08T20:58:26.504Z,8.13
2023-03-08T21:00:52.982Z,9.60
2023-03-08T21:03:19.595Z,9.20
2023-03-08T21:05:52.999Z,7.93
2023-03-08T21:08:19.968Z,9.70
2023-03-08T21:10:46.457Z,10.03
2023-03-08T21:13:13.915Z,8.07
2023-03-08T21:15:40.475Z,8.80
2023-03-08T21:18:07.384Z,8.00
2023-03-08T21:20:38.024Z,10.30
2023-03-08T21:23:04.670Z,7.40
2023-03-08T21:25:34.995Z,6.67
2023-03-08T21:28:01.541Z,7.57
2023-03-08T21:30:30.529Z,6.00
2023-03-08T21:32:57.123Z,5.20
2023-03-08T21:35:23.845Z,5.33
2023-03-08T21:37:50.431Z,6.50
2023-03-08T21:40:17.118Z,7.43
2023-03-08T21:42:44.097Z,6.93
2023-03-08T21:45:10.896Z,6.67
2023-03-08T21:47:37.470Z,5.87
2023-03-08T21:50:04.277Z,6.40
2023-03-08T21:52:30.807Z,6.57
2023-03-08T21:54:57.293Z,5.80
2023-03-08T21:57:23.913Z,5.93
2023-03-08T21:59:50.403Z,6.40
2023-03-08T22:02:16.972Z,5.83
2023-03-08T22:04:45.535Z,5.63
2023-03-08T22:07:12.308Z,4.80
2023-03-08T22:09:38.979Z,5.77
2023-03-08T22:12:05.733Z,6.10
2023-03-08T22:14:33.359Z,5.77
2023-03-08T22:17:00.678Z,5.47
2023-03-08T22:19:27.337Z,5.37
2023-03-08T22:21:53.875Z,4.93
2023-03-08T22:24:20.522Z,5.50
2023-03-08T22:26:48.030Z,4.63
2023-03-08T22:29:14.824Z,4.90
2023-03-08T22:31:41.615Z,4.40
2023-03-08T22:34:08.268Z,4.23
2023-03-08T22:36:34.988Z,4.63
2023-03-08T22:39:01.580Z,5.87
2023-03-08T22:41:28.591Z,5.20
2023-03-08T22:43:55.363Z,4.67
2023-03-08T22:46:24.729Z,4.43
2023-03-08T22:48:52.549Z,4.90
2023-03-08T22:51:21.043Z,5.27
2023-03-08T22:53:50.386Z,5.10
2023-03-08T22:56:30.311Z,4.57
2023-03-08T22:58:57.676Z,4.53
2023-03-08T23:01:25.046Z,4.30
2023-03-08T23:03:56.807Z,3.83
2023-03-08T23:06:24.957Z,4.73
2023-03-08T23:08:51.863Z,4.53
2023-03-08T23:11:18.470Z,4.13
2023-03-08T23:13:45.026Z,3.77
2023-03-08T23:16:13.846Z,4.37
2023-03-08T23:18:41.136Z,4.33
2023-03-08T23:21:11.284Z,4.17
2023-03-08T23:23:38.191Z,4.20
2023-03-08T23:26:06.381Z,4.37
2023-03-08T23:28:35.484Z,4.17
2023-03-08T23:31:07.552Z,3.93
2023-03-08T23:33:34.005Z,4.37
2023-03-08T23:36:00.658Z,3.77
2023-03-08T23:38:27.357Z,3.97
2023-03-08T23:40:53.908Z,3.63
2023-03-08T23:43:20.488Z,4.20
2023-03-08T23:45:47.071Z,3.83
2023-03-08T23:48:13.622Z,3.90
2023-03-08T23:50:40.242Z,3.60
2023-03-08T23:53:07.116Z,4.07
2023-03-08T23:55:40.071Z,4.40
2023-03-08T23:58:07.301Z,4.80
